Time;durP1;ratioP1;P1;durP2;ratioP2;P2;SDS_P1;SDS_P2;PMS_P1;PMS_P2;Temp;Humidity;BMP_temperature;BMP_pressure;BME280_temperature;BME280_humidity;BME280_pressure;Samples;Min_cycle;Max_cycle;Signal;HPM_P1;HPM_P2
2023/03/18 10:11:22;;;;;;;12.97;12.47;;;22.80;56.70;;;;;;5106972;27;1263888;-77
2023/03/18 10:13:57;;;;;;;13.23;12.53;;;24.50;51.80;;;;;;5128231;28;20567;-77
2023/03/18 10:16:29;;;;;;;11.80;11.10;;;25.00;51.00;;;;;;5128084;28;20437;-78
2023/03/18 10:18:56;;;;;;;11.90;11.40;;;25.30;50.90;;;;;;5127807;28;20441;-78
2023/03/18 10:21:37;;;;;;;11.77;11.30;;;24.80;50.90;;;;;;5127757;28;20731;-78
2023/03/18 10:24:19;;;;;;;11.73;11.23;;;24.60;51.20;;;;;;5127839;28;20448;-80
2023/03/18 10:27:00;;;;;;;12.17;11.53;;;24.70;50.40;;;;;;5128038;28;20485;-78
2023/03/18 10:29:37;;;;;;;10.10;9.80;;;24.90;49.10;;;;;;5127694;28;20476;-78
2023/03/18 10:32:11;;;;;;;11.13;10.60;;;24.40;48.00;;;;;;5127581;28;21001;-78
2023/03/18 10:35:00;;;;;;;12.47;11.77;;;25.00;48.50;;;;;;5127714;28;20672;-78
2023/03/18 10:37:37;;;;;;;11.93;11.33;;;25.00;49.10;;;;;;5127378;28;20547;-78
2023/03/18 10:40:12;;;;;;;12.40;11.77;;;24.70;49.10;;;;;;5127269;28;20448;-79
2023/03/18 10:42:41;;;;;;;12.17;11.43;;;23.90;49.70;;;;;;5127433;28;20447;-78
2023/03/18 10:45:21;;;;;;;11.63;11.13;;;23.20;49.70;;;;;;5127332;28;20792;-80
2023/03/18 10:47:53;;;;;;;12.10;11.50;;;23.90;48.90;;;;;;5127389;28;20441;-79
2023/03/18 10:50:24;;;;;;;11.13;10.70;;;24.10;47.30;;;;;;5127251;28;20847;-79
2023/03/18 10:52:56;;;;;;;11.90;10.97;;;23.70;48.60;;;;;;5127334;28;20793;-79
2023/03/18 10:55:27;;;;;;;11.40;11.00;;;23.90;48.80;;;;;;5127020;28;20721;-79
2023/03/18 10:57:55;;;;;;;11.00;10.60;;;24.00;47.60;;;;;;5127030;28;20787;-78
2023/03/18 11:00:28;;;;;;;12.50;11.80;;;23.70;47.50;;;;;;5126639;28;20449;-78
2023/03/18 11:02:55;;;;;;;12.03;11.53;;;23.50;48.20;;;;;;5126959;28;20536;-78
2023/03/18 11:05:24;;;;;;;10.80;10.30;;;23.40;47.90;;;;;;5127154;28;20445;-77
2023/03/18 11:07:59;;;;;;;11.13;10.60;;;22.90;49.10;;;;;;5127046;28;20461;-77
2023/03/18 11:10:30;;;;;;;11.27;10.73;;;22.50;49.10;;;;;;5122821;28;20945;-77
2023/03/18 11:13:01;;;;;;;12.30;11.60;;;22.00;50.10;;;;;;5113720;28;20464;-79
2023/03/18 11:15:28;;;;;;;10.40;9.97;;;22.10;50.70;;;;;;5113665;28;20510;-78
2023/03/18 11:17:58;;;;;;;11.10;10.57;;;22.00;50.50;;;;;;5113583;28;20847;-79
2023/03/18 11:20:41;;;;;;;10.50;10.10;;;22.10;50.90;;;;;;5113543;28;20792;-79
2023/03/18 11:23:16;;;;;;;10.47;10.07;;;22.90;50.20;;;;;;5113415;28;20478;-79
2023/03/18 11:25:47;;;;;;;11.60;11.10;;;23.10;49.30;;;;;;5113395;28;20457;-79
2023/03/18 11:28:25;;;;;;;12.17;11.57;;;23.60;48.20;;;;;;5113429;28;20882;-78
2023/03/18 11:30:56;;;;;;;11.00;10.50;;;24.00;46.70;;;;;;5113274;28;20477;-77
2023/03/18 11:33:25;;;;;;;10.60;10.20;;;24.30;46.40;;;;;;5113398;28;20833;-79
2023/03/18 11:35:54;;;;;;;11.57;10.97;;;24.90;45.00;;;;;;5113597;28;20456;-79
2023/03/18 11:38:27;;;;;;;11.47;11.03;;;25.50;44.30;;;;;;5113361;28;20455;-79
2023/03/18 11:40:54;;;;;;;10.83;10.23;;;25.70;43.00;;;;;;5113295;28;20493;-77
2023/03/18 11:43:24;;;;;;;10.50;9.90;;;25.20;43.70;;;;;;5113170;28;20456;-77
2023/03/18 11:45:56;;;;;;;11.07;10.50;;;24.60;43.30;;;;;;5113164;28;20449;-78
2023/03/18 11:48:30;;;;;;;11.10;10.60;;;24.70;43.30;;;;;;5113080;28;20449;-79
2023/03/18 11:51:12;;;;;;;11.87;11.27;;;25.40;43.20;;;;;;5113055;28;20595;-78
2023/03/18 11:53:51;;;;;;;11.13;10.73;;;26.60;41.60;;;;;;5113221;28;20477;-79
2023/03/18 11:56:26;;;;;;;10.83;10.43;;;26.10;40.70;;;;;;5113234;28;20455;-79
2023/03/18 11:59:25;;;;;;;12.27;11.50;;;24.60;41.70;;;;;;5113042;28;20445;-78
2023/03/18 12:02:04;;;;;;;12.20;11.60;;;24.60;42.50;;;;;;5113126;28;20956;-78
2023/03/18 12:04:53;;;;;;;10.40;9.90;;;24.50;42.00;;;;;;5113263;28;20445;-78
2023/03/18 12:07:35;;;;;;;11.50;10.80;;;24.60;42.50;;;;;;5112887;28;20441;-77
2023/03/18 12:10:13;;;;;;;12.80;12.20;;;25.00;42.00;;;;;;5112841;28;20541;-77
2023/03/18 12:12:54;;;;;;;11.40;10.70;;;24.80;41.70;;;;;;5113022;28;20540;-78
2023/03/18 12:15:43;;;;;;;11.40;10.80;;;24.10;42.50;;;;;;5113024;28;20445;-78
2023/03/18 12:18:23;;;;;;;11.40;11.00;;;23.90;42.90;;;;;;5112920;28;20564;-78
2023/03/18 12:20:52;;;;;;;10.90;10.40;;;24.60;42.50;;;;;;5112919;28;20449;-79
2023/03/18 12:23:46;;;;;;;11.03;10.53;;;25.50;40.90;;;;;;5111699;28;20519;-79
2023/03/18 12:26:17;;;;;;;11.67;11.23;;;26.40;39.80;;;;;;5112509;28;20460;-79
2023/03/18 12:29:06;;;;;;;11.70;11.20;;;27.80;37.80;;;;;;5112877;28;20446;-78
2023/03/18 12:31:50;;;;;;;11.80;11.20;;;27.20;38.30;;;;;;5113120;28;20469;-76
2023/03/18 12:34:34;;;;;;;11.87;11.07;;;26.90;37.90;;;;;;5112986;28;20445;-77
2023/03/18 12:37:14;;;;;;;13.20;12.70;;;27.20;37.10;;;;;;5112958;28;20455;-78
2023/03/18 12:39:55;;;;;;;12.60;12.00;;;27.10;37.00;;;;;;5112393;28;20476;-77
2023/03/18 12:42:36;;;;;;;12.10;11.60;;;27.80;36.80;;;;;;5112323;28;20506;-79
2023/03/18 12:45:08;;;;;;;11.93;11.43;;;28.20;35.90;;;;;;5112464;28;20441;-78
2023/03/18 12:47:42;;;;;;;11.50;11.10;;;27.60;36.50;;;;;;5112244;28;20445;-77
2023/03/18 12:50:18;;;;;;;12.30;11.80;;;28.10;37.00;;;;;;5112240;28;20854;-77
2023/03/18 12:52:50;;;;;;;12.80;12.30;;;28.00;36.00;;;;;;5112336;28;20445;-77
2023/03/18 12:55:22;;;;;;;12.30;11.70;;;28.20;35.80;;;;;;5112286;28;20460;-78
2023/03/18 12:57:53;;;;;;;11.53;11.13;;;28.20;34.90;;;;;;5112074;28;20460;-77
2023/03/18 13:00:24;;;;;;;12.47;11.67;;;27.50;35.10;;;;;;5111922;28;20485;-77
2023/03/18 13:03:17;;;;;;;12.17;11.57;;;27.80;34.90;;;;;;5112089;28;20452;-77
2023/03/18 13:05:51;;;;;;;12.20;11.60;;;27.70;34.60;;;;;;5111823;28;20452;-77
2023/03/18 13:08:41;;;;;;;11.60;11.10;;;27.70;34.50;;;;;;5112045;28;20468;-77
2023/03/18 13:11:19;;;;;;;11.40;11.00;;;28.10;34.40;;;;;;5111287;28;20497;-78
2023/03/18 13:13:51;;;;;;;12.27;11.70;;;28.10;34.50;;;;;;5111714;28;20460;-78
2023/03/18 13:16:22;;;;;;;12.50;11.80;;;28.90;33.30;;;;;;5111723;28;20498;-77
2023/03/18 13:18:53;;;;;;;11.77;11.27;;;28.80;32.80;;;;;;5111601;28;20453;-77
2023/03/18 13:21:23;;;;;;;10.50;10.00;;;28.40;34.00;;;;;;5111511;28;20457;-78
2023/03/18 13:24:07;;;;;;;10.67;10.20;;;27.60;34.10;;;;;;5111366;28;20508;-77
2023/03/18 13:26:56;;;;;;;10.27;9.77;;;27.10;34.70;;;;;;5111566;28;20475;-79
2023/03/18 13:29:33;;;;;;;12.73;12.23;;;26.80;34.90;;;;;;5111573;28;20879;-79
2023/03/18 13:32:14;;;;;;;11.90;11.10;;;27.20;34.80;;;;;;5111620;28;20445;-78
2023/03/18 13:35:07;;;;;;;11.87;10.70;;;27.40;34.30;;;;;;5111057;28;20522;-78
2023/03/18 13:37:56;;;;;;;10.53;10.00;;;26.60;34.80;;;;;;5111471;28;20514;-78
2023/03/18 13:40:40;;;;;;;10.60;10.10;;;25.60;34.90;;;;;;5111167;28;21029;-77
2023/03/18 13:43:13;;;;;;;10.10;9.70;;;24.50;36.30;;;;;;5111269;28;20451;-78
2023/03/18 13:45:42;;;;;;;10.30;9.80;;;24.50;36.90;;;;;;5111182;28;20810;-78
2023/03/18 13:48:12;;;;;;;11.07;10.60;;;24.50;36.10;;;;;;5111155;28;20445;-77
2023/03/18 13:50:42;;;;;;;10.63;10.10;;;24.30;36.30;;;;;;5111113;28;20746;-77
2023/03/18 13:53:21;;;;;;;10.17;9.77;;;23.80;36.80;;;;;;5111040;28;20510;-77
2023/03/18 13:55:59;;;;;;;10.30;9.80;;;23.60;37.40;;;;;;5111314;28;20441;-77
2023/03/18 13:58:28;;;;;;;11.00;10.57;;;23.40;37.40;;;;;;5110966;28;20453;-76
2023/03/18 14:01:16;;;;;;;9.53;9.17;;;23.10;38.50;;;;;;5111165;28;20457;-76
2023/03/18 14:03:59;;;;;;;10.67;10.17;;;23.20;37.60;;;;;;5111184;28;20916;-77
2023/03/18 14:06:51;;;;;;;11.87;11.47;;;23.20;38.10;;;;;;5111055;28;20445;-76
2023/03/18 14:09:33;;;;;;;11.10;10.40;;;23.20;37.80;;;;;;5111107;28;20477;-77
2023/03/18 14:12:17;;;;;;;10.40;10.00;;;22.90;37.30;;;;;;5111153;28;20440;-78
2023/03/18 14:14:56;;;;;;;11.10;10.50;;;22.80;37.90;;;;;;5110929;28;20438;-77
2023/03/18 14:17:33;;;;;;;12.53;12.03;;;22.60;37.60;;;;;;5110952;28;20882;-77
2023/03/18 14:20:09;;;;;;;11.40;10.90;;;22.70;38.40;;;;;;5110941;28;20456;-78
2023/03/18 14:22:38;;;;;;;10.17;9.87;;;22.70;38.10;;;;;;5111027;28;20486;-78
2023/03/18 14:25:46;;;;;;;9.80;9.40;;;22.50;38.30;;;;;;5110767;28;20510;-77
2023/03/18 14:28:25;;;;;;;11.20;10.60;;;22.50;38.00;;;;;;5105652;28;20476;-77
2023/03/18 14:31:14;;;;;;;10.53;10.13;;;22.30;38.00;;;;;;5110822;28;20481;-77
2023/03/18 14:33:52;;;;;;;11.07;10.67;;;22.20;38.70;;;;;;5110898;28;20453;-79
2023/03/18 14:36:28;;;;;;;10.60;10.20;;;22.10;38.60;;;;;;5110515;28;20448;-78
2023/03/18 14:39:02;;;;;;;11.40;10.90;;;22.10;39.20;;;;;;5110649;28;20788;-78
2023/03/18 14:41:32;;;;;;;11.80;11.30;;;22.30;39.00;;;;;;5110544;28;20518;-78
2023/03/18 14:44:07;;;;;;;11.00;10.60;;;22.30;39.00;;;;;;5110448;28;20945;-78
2023/03/18 14:46:40;;;;;;;11.77;11.27;;;22.30;39.00;;;;;;5112800;28;20802;-77
2023/03/18 14:49:32;;;;;;;11.40;10.90;;;22.40;38.70;;;;;;5114212;28;20473;-78
2023/03/18 14:52:00;;;;;;;20.07;18.70;;;22.40;38.80;;;;;;5109152;28;20493;-77
2023/03/18 14:54:35;;;;;;;11.20;10.70;;;22.60;39.10;;;;;;5102689;28;20545;-78
2023/03/18 14:57:04;;;;;;;9.70;9.40;;;22.60;39.00;;;;;;5093895;28;20824;-78
2023/03/18 14:59:31;;;;;;;10.80;10.30;;;22.70;39.00;;;;;;5093667;28;20553;-77
2023/03/18 15:01:58;;;;;;;11.27;10.70;;;22.70;38.40;;;;;;5093205;28;20442;-77
2023/03/18 15:04:26;;;;;;;10.10;9.60;;;22.50;38.60;;;;;;5093500;28;20844;-77
2023/03/18 15:06:57;;;;;;;10.03;9.63;;;22.40;38.60;;;;;;5093591;28;20873;-80
2023/03/18 15:09:27;;;;;;;11.00;10.60;;;22.10;39.00;;;;;;5093327;28;20466;-78
2023/03/18 15:11:56;;;;;;;11.13;10.73;;;21.90;38.60;;;;;;5093415;28;20482;-78
2023/03/18 15:14:26;;;;;;;11.00;10.50;;;21.80;39.00;;;;;;5093160;28;20958;-78
2023/03/18 15:16:53;;;;;;;10.10;9.73;;;21.90;39.40;;;;;;5093254;28;20546;-78
2023/03/18 15:19:21;;;;;;;10.60;10.10;;;21.70;39.30;;;;;;5093476;28;20809;-78
2023/03/18 15:21:48;;;;;;;11.73;11.13;;;21.70;39.80;;;;;;5093290;28;20811;-79
2023/03/18 15:24:19;;;;;;;10.50;10.10;;;21.70;39.60;;;;;;5093205;28;20454;-79
2023/03/18 15:26:55;;;;;;;11.10;10.60;;;21.60;39.60;;;;;;5093170;28;20921;-77
2023/03/18 15:29:27;;;;;;;11.10;10.70;;;21.50;39.70;;;;;;5093965;28;20968;-77
2023/03/18 15:32:06;;;;;;;10.80;10.33;;;21.40;39.90;;;;;;5093841;28;20516;-77
2023/03/18 15:34:34;;;;;;;10.33;9.73;;;21.30;40.00;;;;;;5094028;28;20488;-77
2023/03/18 15:37:04;;;;;;;10.73;10.13;;;21.40;40.40;;;;;;5093755;28;20458;-78
2023/03/18 15:39:34;;;;;;;10.77;10.27;;;21.40;39.80;;;;;;5094375;28;20554;-77
2023/03/18 15:42:02;;;;;;;10.60;10.10;;;21.40;40.00;;;;;;5093750;28;20545;-79
2023/03/18 15:44:35;;;;;;;10.37;9.77;;;21.20;42.20;;;;;;5093712;28;20448;-77
2023/03/18 15:47:12;;;;;;;10.07;9.67;;;21.20;44.50;;;;;;5093646;28;20457;-78
2023/03/18 15:49:49;;;;;;;11.17;10.57;;;21.20;46.50;;;;;;5093633;28;20494;-79
2023/03/18 15:52:17;;;;;;;9.90;9.40;;;21.20;48.90;;;;;;5092572;28;20474;-77
2023/03/18 15:54:43;;;;;;;11.80;11.20;;;21.00;51.30;;;;;;5093820;28;20200;-79
2023/03/18 15:57:13;;;;;;;10.93;10.33;;;20.80;52.50;;;;;;5093708;28;20442;-79
2023/03/18 15:59:41;;;;;;;10.50;10.00;;;20.60;53.20;;;;;;5093559;28;20831;-77
2023/03/18 16:02:14;;;;;;;10.97;10.30;;;20.40;54.30;;;;;;5093651;28;20455;-78
2023/03/18 16:04:43;;;;;;;10.70;10.20;;;20.30;55.20;;;;;;5092389;28;20454;-77
2023/03/18 16:07:16;;;;;;;10.23;9.83;;;20.20;56.00;;;;;;5094051;28;20976;-77
2023/03/18 16:09:42;;;;;;;11.10;10.30;;;20.00;56.30;;;;;;5092918;28;20561;-78
2023/03/18 16:12:17;;;;;;;11.50;10.57;;;19.90;56.90;;;;;;5092807;28;20531;-78
2023/03/18 16:14:47;;;;;;;10.40;10.00;;;19.80;57.50;;;;;;5092865;28;20460;-77
2023/03/18 16:17:16;;;;;;;11.87;11.20;;;19.60;57.90;;;;;;5092704;28;20793;-78
2023/03/18 16:19:44;;;;;;;11.10;10.50;;;19.50;57.90;;;;;;5092741;28;21075;-77
2023/03/18 16:22:13;;;;;;;10.80;10.30;;;19.40;58.40;;;;;;5092602;28;20449;-78
2023/03/18 16:24:40;;;;;;;11.97;11.27;;;19.20;59.00;;;;;;5092577;28;20454;-79
2023/03/18 16:27:15;;;;;;;11.50;10.90;;;19.10;59.70;;;;;;5092560;28;20490;-77
2023/03/18 16:29:54;;;;;;;11.83;11.30;;;19.00;60.80;;;;;;5092596;28;20449;-78
2023/03/18 16:32:23;;;;;;;10.83;10.13;;;18.90;61.50;;;;;;5092250;28;20876;-78
2023/03/18 16:34:50;;;;;;;10.20;9.67;;;18.80;62.50;;;;;;5092253;28;20937;-78
2023/03/18 16:37:21;;;;;;;12.43;11.63;;;18.70;63.30;;;;;;5092250;28;20446;-78
2023/03/18 16:40:05;;;;;;;11.80;10.87;;;18.60;64.10;;;;;;5092073;28;20547;-78
2023/03/18 16:42:40;;;;;;;11.43;10.77;;;18.50;65.00;;;;;;5092425;28;20446;-78
2023/03/18 16:45:32;;;;;;;10.93;10.13;;;18.60;66.20;;;;;;5092004;28;20828;-78
2023/03/18 16:48:33;;;;;;;11.27;10.67;;;18.40;67.70;;;;;;5091551;28;20461;-77
2023/03/18 16:51:13;;;;;;;12.10;11.40;;;18.00;68.30;;;;;;5091715;28;20513;-78
2023/03/18 16:53:42;;;;;;;11.40;10.60;;;18.60;69.20;;;;;;5091258;28;20968;-76
2023/03/18 16:56:22;;;;;;;11.77;11.00;;;18.90;70.50;;;;;;5091427;28;20446;-78
2023/03/18 16:58:57;;;;;;;11.33;10.53;;;18.10;69.70;;;;;;5091398;28;20519;-77
2023/03/18 17:04:27;;;;;;;12.00;10.97;;;17.90;71.10;;;;;;5087803;28;20522;-77
2023/03/18 17:07:23;;;;;;;11.53;10.83;;;17.80;71.40;;;;;;5091011;28;20469;-78
2023/03/18 17:10:00;;;;;;;11.83;10.80;;;17.70;72.30;;;;;;5090898;28;20996;-78
2023/03/18 17:12:45;;;;;;;12.10;11.30;;;17.50;74.10;;;;;;5089295;28;20486;-77
2023/03/18 17:18:32;;;;;;;11.13;10.43;;;17.30;75.70;;;;;;5090767;28;20451;-78
2023/03/18 17:21:11;;;;;;;9.90;9.40;;;17.20;75.00;;;;;;5068954;28;20949;-76
2023/03/18 17:24:03;;;;;;;11.77;10.97;;;17.00;76.30;;;;;;5091318;28;20448;-80
2023/03/18 17:26:46;;;;;;;11.50;10.63;;;17.00;76.40;;;;;;5091864;28;20541;-77
2023/03/18 17:29:34;;;;;;;11.03;10.33;;;16.80;77.10;;;;;;5091453;28;20450;-78
2023/03/18 17:32:27;;;;;;;11.00;10.30;;;16.90;78.60;;;;;;5091392;28;20482;-79
2023/03/18 17:35:13;;;;;;;;;;;;;;;;;;;;;
2023/03/18 17:37:57;;;;;;;11.33;10.63;;;16.70;78.60;;;;;;5090002;28;20453;-77
2023/03/18 17:40:30;;;;;;;11.70;11.00;;;16.70;79.40;;;;;;5091480;28;20871;-77
2023/03/18 17:43:00;;;;;;;12.00;11.37;;;16.40;79.00;;;;;;5091570;28;20453;-77
2023/03/18 17:45:36;;;;;;;13.07;11.97;;;16.40;79.70;;;;;;5090645;28;20454;-78
2023/03/18 17:51:14;;;;;;;11.93;11.13;;;16.20;81.10;;;;;;5086408;28;20949;-77
2023/03/18 17:54:08;;;;;;;12.07;11.07;;;16.10;81.50;;;;;;5090295;28;20466;-77
2023/03/18 17:56:47;;;;;;;11.97;10.97;;;16.20;82.60;;;;;;5090821;28;20986;-78
